createdAt,value
2018-02-10T00:01:23.118Z,0.40
2018-02-10T00:03:51.560Z,0.23
2018-02-10T00:06:20.115Z,0.37
2018-02-10T00:08:48.460Z,0.04
2018-02-10T00:11:16.874Z,-0.08
2018-02-10T00:13:45.321Z,-0.19
2018-02-10T00:16:13.693Z,-0.07
2018-02-10T00:18:41.999Z,-0.02
2018-02-10T00:21:10.315Z,0.00
2018-02-10T00:23:38.646Z,0.22
2018-02-10T00:26:07.046Z,0.12
2018-02-10T00:28:35.371Z,0.24
2018-02-10T00:31:03.707Z,0.24
2018-02-10T00:33:32.053Z,0.12
2018-02-10T00:36:00.425Z,0.13
2018-02-10T00:38:28.970Z,0.00
2018-02-10T00:40:57.351Z,0.10
2018-02-10T00:43:27.457Z,0.12
2018-02-10T00:45:57.373Z,0.25
2018-02-10T00:48:25.669Z,0.36
2018-02-10T00:50:54.013Z,0.00
2018-02-10T00:53:22.361Z,-0.03
2018-02-10T00:55:50.686Z,-0.19
2018-02-10T00:58:19.246Z,-0.18
2018-02-10T01:00:47.598Z,-0.01
2018-02-10T01:03:15.886Z,-0.08
2018-02-10T01:05:44.349Z,0.00
2018-02-10T01:08:12.690Z,0.07
2018-02-10T01:10:41.121Z,0.06
2018-02-10T01:13:09.439Z,-0.19
2018-02-10T01:15:37.894Z,-0.05
2018-02-10T01:19:09.275Z,-0.24
2018-02-10T01:21:37.636Z,-0.29
2018-02-10T01:24:05.965Z,-0.15
2018-02-10T01:26:34.310Z,0.04
2018-02-10T01:29:02.710Z,0.06
2018-02-10T01:31:31.062Z,0.06
2018-02-10T01:33:59.395Z,-0.14
2018-02-10T01:36:27.843Z,0.03
2018-02-10T01:38:56.229Z,0.15
2018-02-10T01:41:24.998Z,0.05
2018-02-10T01:43:53.287Z,0.03
2018-02-10T01:46:21.646Z,0.04
2018-02-10T01:48:49.950Z,-0.04
2018-02-10T01:51:18.327Z,-0.03
2018-02-10T01:53:46.729Z,-0.20
2018-02-10T01:56:15.223Z,-0.12
2018-02-10T01:58:43.682Z,-0.17
2018-02-10T02:01:12.004Z,0.06
2018-02-10T02:03:40.539Z,0.03
2018-02-10T02:06:08.940Z,0.02
2018-02-10T02:08:37.398Z,-0.14
2018-02-10T02:11:05.758Z,-0.20
2018-02-10T02:13:34.055Z,-0.14
2018-02-10T02:16:02.383Z,-0.28
2018-02-10T02:18:30.777Z,-0.11
2018-02-10T02:20:59.452Z,-0.15
2018-02-10T02:23:27.778Z,-0.11
2018-02-10T02:25:56.204Z,-0.11
2018-02-10T02:28:24.610Z,-0.02
2018-02-10T02:30:53.056Z,-0.24
2018-02-10T02:33:21.507Z,-0.27
2018-02-10T02:35:49.837Z,-0.26
2018-02-10T02:38:18.318Z,-0.16
2018-02-10T02:40:46.963Z,-0.23
2018-02-10T02:43:15.323Z,0.00
2018-02-10T02:45:43.674Z,-0.04
2018-02-10T02:48:12.213Z,-0.34
2018-02-10T02:50:40.535Z,-0.39
2018-02-10T02:53:08.925Z,-0.51
2018-02-10T02:55:37.256Z,-0.39
2018-02-10T02:58:05.600Z,-0.33
2018-02-10T03:00:33.906Z,-0.25
2018-02-10T03:03:02.203Z,-0.11
2018-02-10T03:05:30.672Z,-0.08
2018-02-10T03:07:58.994Z,-0.26
2018-02-10T03:10:27.314Z,-0.26
2018-02-10T03:12:55.636Z,-0.33
2018-02-10T03:15:24.806Z,-0.31
2018-02-10T03:17:54.319Z,-0.34
2018-02-10T03:20:22.700Z,-0.35
2018-02-10T03:22:51.105Z,-0.26
2018-02-10T03:25:19.419Z,-0.09
2018-02-10T03:27:47.751Z,0.01
2018-02-10T03:30:18.256Z,0.08
2018-02-10T03:32:47.760Z,-0.05
2018-02-10T03:35:17.561Z,0.11
2018-02-10T03:37:46.005Z,-0.24
2018-02-10T03:40:14.377Z,-0.07
2018-02-10T03:42:42.786Z,0.06
2018-02-10T03:45:11.152Z,-0.02
2018-02-10T03:47:39.439Z,-0.12
2018-02-10T03:50:07.790Z,-0.03
2018-02-10T03:52:36.235Z,-0.05
2018-02-10T03:55:04.626Z,-0.21
2018-02-10T03:57:32.975Z,-0.28
2018-02-10T04:00:01.229Z,-0.20
2018-02-10T04:02:29.575Z,-0.33
2018-02-10T04:04:58.022Z,-0.31
2018-02-10T04:07:26.538Z,-0.25
2018-02-10T04:09:54.814Z,-0.26
2018-02-10T04:12:23.231Z,-0.29
2018-02-10T04:14:51.808Z,-0.24
2018-02-10T04:17:20.269Z,-0.26
2018-02-10T04:19:48.551Z,-0.03
2018-02-10T04:22:16.910Z,-0.08
2018-02-10T04:24:45.219Z,-0.33
2018-02-10T04:27:13.617Z,-0.09
2018-02-10T04:29:42.034Z,-0.08
2018-02-10T04:32:10.430Z,-0.19
2018-02-10T04:34:38.711Z,-0.22
2018-02-10T04:37:07.082Z,-0.30
2018-02-10T04:39:35.446Z,-0.32
2018-02-10T04:42:03.779Z,-0.20
2018-02-10T04:44:32.102Z,-0.55
2018-02-10T04:47:00.416Z,-0.47
2018-02-10T04:49:28.686Z,-0.46
2018-02-10T04:51:57.146Z,-0.35
2018-02-10T04:54:26.224Z,-0.39
2018-02-10T04:56:54.603Z,-0.22
2018-02-10T04:59:22.906Z,-0.17
2018-02-10T05:07:42.442Z,-0.36
2018-02-10T05:10:11.007Z,-0.27
2018-02-10T05:12:39.569Z,-0.15
2018-02-10T05:15:08.292Z,-0.15
2018-02-10T05:17:36.991Z,-0.12
2018-02-10T05:20:07.183Z,-0.21
2018-02-10T05:22:35.701Z,-0.29
2018-02-10T05:25:04.432Z,-0.20
2018-02-10T05:27:33.334Z,-0.10
2018-02-10T05:30:02.002Z,-0.32
2018-02-10T05:32:30.873Z,-0.33
2018-02-10T05:34:59.561Z,-0.37
2018-02-10T05:37:28.156Z,-0.33
2018-02-10T05:39:56.639Z,-0.38
2018-02-10T05:42:25.552Z,-0.45
2018-02-10T05:44:54.044Z,-0.54
2018-02-10T05:47:22.579Z,-0.56
2018-02-10T05:49:51.356Z,-0.51
2018-02-10T05:52:19.973Z,-0.48
2018-02-10T05:54:48.895Z,-0.47
2018-02-10T05:57:18.161Z,-0.27
2018-02-10T05:59:47.115Z,-0.19
2018-02-10T06:02:16.188Z,-0.15
2018-02-10T06:04:44.696Z,-0.41
2018-02-10T06:07:13.348Z,-0.31
2018-02-10T06:09:42.704Z,-0.19
2018-02-10T06:12:11.515Z,-0.31
2018-02-10T06:14:41.022Z,-0.41
2018-02-10T06:17:09.768Z,-0.23
2018-02-10T06:19:40.464Z,-0.09
2018-02-10T06:22:10.896Z,-0.17
2018-02-10T06:24:40.404Z,-0.19
2018-02-10T06:27:09.781Z,-0.24
2018-02-10T06:29:38.364Z,-0.20
2018-02-10T06:32:07.715Z,-0.13
2018-02-10T06:34:42.817Z,-0.37
2018-02-10T06:37:17.935Z,-0.14
2018-02-10T06:39:46.794Z,-0.27
2018-02-10T06:42:15.357Z,-0.14
2018-02-10T06:44:43.997Z,-0.18
2018-02-10T06:47:12.609Z,-0.01
2018-02-10T06:49:41.215Z,0.00
2018-02-10T06:52:09.704Z,-0.14
2018-02-10T06:54:38.389Z,-0.44
2018-02-10T06:57:07.311Z,-0.21
2018-02-10T06:59:35.979Z,-0.37
2018-02-10T07:08:52.223Z,-0.36
2018-02-10T07:11:20.991Z,-0.29
2018-02-10T07:13:49.815Z,-0.19
2018-02-10T07:16:18.402Z,-0.38
2018-02-10T07:18:47.532Z,0.07
2018-02-10T07:21:16.110Z,-0.05
2018-02-10T07:23:44.564Z,-0.12
2018-02-10T07:26:13.231Z,-0.07
2018-02-10T07:28:41.809Z,0.13
2018-02-10T07:31:10.404Z,0.17
2018-02-10T07:33:39.260Z,0.10
2018-02-10T07:36:07.779Z,0.20
2018-02-10T07:38:36.288Z,-0.01
2018-02-10T07:41:04.848Z,0.16
2018-02-10T07:43:33.433Z,0.00
2018-02-10T07:46:02.300Z,0.13
2018-02-10T07:48:31.168Z,0.22
2018-02-10T07:50:59.919Z,0.26
2018-02-10T07:53:28.487Z,0.11
2018-02-10T07:55:56.988Z,-0.05
2018-02-10T07:58:25.548Z,-0.02
2018-02-10T08:00:54.080Z,0.04
2018-02-10T08:03:22.864Z,0.25
2018-02-10T08:05:51.365Z,0.10
2018-02-10T08:08:20.097Z,0.35
2018-02-10T08:10:48.636Z,0.43
2018-02-10T08:13:17.223Z,0.21
2018-02-10T08:15:45.958Z,0.34
2018-02-10T08:18:14.521Z,0.24
2018-02-10T08:20:43.117Z,0.30
2018-02-10T08:23:11.637Z,0.35
2018-02-10T08:25:40.248Z,0.41
2018-02-10T08:28:08.916Z,0.42
2018-02-10T08:30:37.420Z,0.47
2018-02-10T08:33:06.276Z,0.33
2018-02-10T08:35:34.804Z,0.38
2018-02-10T08:38:03.509Z,0.28
2018-02-10T08:40:32.154Z,0.41
2018-02-10T08:43:00.722Z,0.39
2018-02-10T08:45:29.523Z,0.43
2018-02-10T08:47:57.993Z,0.48
2018-02-10T08:50:26.708Z,0.48
2018-02-10T08:52:55.338Z,0.52
2018-02-10T08:55:23.889Z,0.56
2018-02-10T08:57:52.502Z,0.58
2018-02-10T09:00:21.224Z,0.62
2018-02-10T09:02:49.903Z,0.73
2018-02-10T09:05:18.606Z,0.78
2018-02-10T09:07:47.454Z,0.80
2018-02-10T09:10:15.968Z,0.83
2018-02-10T09:12:44.555Z,0.95
2018-02-10T09:15:13.093Z,0.97
2018-02-10T09:17:43.855Z,0.99
2018-02-10T09:20:13.347Z,1.13
2018-02-10T09:22:42.023Z,1.17
2018-02-10T09:25:11.679Z,1.25
2018-02-10T09:27:40.384Z,1.25
2018-02-10T09:30:08.923Z,1.40
2018-02-10T09:32:37.646Z,1.45
2018-02-10T09:35:06.308Z,1.56
2018-02-10T09:37:34.972Z,1.57
2018-02-10T09:40:03.784Z,1.63
2018-02-10T09:42:32.350Z,1.63
2018-02-10T09:45:01.069Z,1.64
2018-02-10T09:47:29.762Z,1.61
2018-02-10T09:49:58.399Z,1.48
2018-02-10T09:52:26.912Z,1.55
2018-02-10T09:54:55.643Z,1.45
2018-02-10T09:57:24.284Z,1.53
2018-02-10T09:59:52.792Z,1.46
2018-02-10T10:02:21.500Z,1.55
2018-02-10T10:04:50.040Z,1.45
2018-02-10T10:07:18.604Z,1.46
2018-02-10T10:09:47.205Z,1.49
2018-02-10T10:12:15.778Z,1.54
2018-02-10T10:14:45.468Z,1.67
2018-02-10T10:17:13.984Z,1.73
2018-02-10T10:19:42.500Z,1.69
2018-02-10T10:22:11.016Z,1.72
2018-02-10T10:24:39.564Z,1.77
2018-02-10T10:27:08.127Z,1.83
2018-02-10T10:29:36.944Z,1.84
2018-02-10T10:32:05.664Z,1.72
2018-02-10T10:34:34.124Z,1.97
2018-02-10T10:37:02.735Z,1.94
2018-02-10T10:39:31.280Z,2.00
2018-02-10T10:42:06.688Z,1.98
2018-02-10T10:44:35.268Z,2.11
2018-02-10T10:47:03.929Z,2.06
2018-02-10T10:49:32.811Z,2.19
2018-02-10T10:52:01.497Z,2.21
2018-02-10T10:54:30.244Z,2.18
2018-02-10T10:56:59.280Z,2.25
2018-02-10T10:59:27.833Z,2.30
2018-02-10T11:01:57.846Z,2.42
2018-02-10T11:04:26.481Z,2.56
2018-02-10T11:06:55.016Z,2.59
2018-02-10T11:09:24.431Z,2.51
2018-02-10T11:11:52.936Z,2.55
2018-02-10T11:14:21.500Z,2.62
2018-02-10T11:16:50.202Z,2.66
2018-02-10T11:19:19.151Z,2.80
2018-02-10T11:21:47.782Z,2.88
2018-02-10T11:24:16.285Z,3.17
2018-02-10T11:26:44.961Z,3.37
2018-02-10T11:29:13.444Z,3.52
2018-02-10T11:31:42.129Z,3.78
2018-02-10T11:34:10.616Z,3.87
2018-02-10T11:36:39.144Z,3.99
2018-02-10T11:39:07.979Z,3.88
2018-02-10T11:41:36.702Z,4.42
2018-02-10T11:44:05.197Z,4.41
2018-02-10T11:46:34.023Z,5.18
2018-02-10T11:49:02.557Z,4.62
2018-02-10T11:51:31.084Z,4.97
2018-02-10T11:54:00.491Z,4.96
2018-02-10T11:56:29.181Z,5.67
2018-02-10T11:58:58.071Z,4.72
2018-02-10T12:01:26.979Z,5.72
2018-02-10T12:03:55.588Z,7.36
2018-02-10T12:06:24.324Z,6.75
2018-02-10T12:08:52.972Z,6.91
2018-02-10T12:11:21.693Z,8.17
2018-02-10T12:13:50.216Z,6.25
2018-02-10T12:16:18.944Z,6.81
2018-02-10T12:18:47.411Z,7.14
2018-02-10T12:21:16.028Z,7.23
2018-02-10T12:23:44.695Z,6.06
2018-02-10T12:26:13.398Z,5.93
2018-02-10T12:28:42.049Z,5.16
2018-02-10T12:31:10.564Z,5.37
2018-02-10T12:33:39.207Z,5.44
2018-02-10T12:36:07.754Z,5.95
2018-02-10T12:38:36.444Z,5.79
2018-02-10T12:41:05.325Z,6.71
2018-02-10T12:43:33.924Z,6.12
2018-02-10T12:46:02.441Z,5.78
2018-02-10T12:48:36.365Z,6.84
2018-02-10T12:51:05.383Z,5.79
2018-02-10T12:53:34.597Z,5.58
2018-02-10T12:56:03.379Z,6.42
2018-02-10T12:58:32.308Z,6.28
2018-02-10T13:01:00.853Z,5.97
2018-02-10T13:03:29.623Z,5.44
2018-02-10T13:05:58.513Z,5.06
2018-02-10T13:08:27.442Z,5.07
2018-02-10T13:10:56.236Z,4.41
2018-02-10T13:13:25.153Z,4.07
2018-02-10T13:15:53.674Z,4.15
2018-02-10T13:18:22.196Z,4.20
2018-02-10T13:20:50.708Z,4.29
2018-02-10T13:23:19.503Z,4.28
2018-02-10T13:25:48.067Z,4.05
2018-02-10T13:28:17.132Z,4.28
2018-02-10T13:30:45.784Z,4.23
2018-02-10T13:33:14.673Z,4.29
2018-02-10T13:35:43.358Z,4.24
2018-02-10T13:38:11.893Z,4.45
2018-02-10T13:40:40.616Z,4.37
2018-02-10T13:43:09.189Z,4.20
2018-02-10T13:45:37.915Z,4.26
2018-02-10T13:48:06.972Z,4.45
2018-02-10T13:50:35.612Z,4.28
2018-02-10T13:53:04.116Z,4.43
2018-02-10T13:55:32.754Z,4.17
2018-02-10T13:58:01.600Z,4.15
2018-02-10T14:00:30.129Z,4.13
2018-02-10T14:02:58.601Z,4.08
2018-02-10T14:05:27.608Z,4.05
2018-02-10T14:07:56.301Z,4.23
2018-02-10T14:10:25.365Z,3.94
2018-02-10T14:12:54.401Z,3.98
2018-02-10T14:15:23.672Z,4.07
2018-02-10T14:17:52.981Z,4.08
2018-02-10T14:20:22.077Z,3.95
2018-02-10T14:22:50.911Z,3.96
2018-02-10T14:25:19.745Z,3.70
2018-02-10T14:27:48.232Z,3.70
2018-02-10T14:30:16.981Z,3.82
2018-02-10T14:32:45.704Z,3.92
2018-02-10T14:35:14.692Z,3.85
2018-02-10T14:37:43.280Z,3.82
2018-02-10T14:40:12.049Z,3.70
2018-02-10T14:42:40.890Z,3.63
2018-02-10T14:45:10.252Z,3.53
2018-02-10T14:47:38.755Z,3.51
2018-02-10T14:50:07.620Z,3.46
2018-02-10T14:52:36.810Z,3.48
2018-02-10T14:55:05.422Z,3.53
2018-02-10T14:57:34.133Z,3.53
2018-02-10T15:00:03.049Z,3.56
2018-02-10T15:02:32.508Z,3.44
2018-02-10T15:05:01.097Z,3.33
2018-02-10T15:07:31.680Z,3.32
2018-02-10T15:10:02.370Z,3.16
2018-02-10T15:12:32.720Z,3.24
2018-02-10T15:15:04.096Z,3.14
2018-02-10T15:17:32.762Z,3.13
2018-02-10T15:20:01.279Z,3.09
2018-02-10T15:22:29.890Z,3.07
2018-02-10T15:24:58.529Z,3.07
2018-02-10T15:27:27.992Z,3.08
2018-02-10T15:30:05.441Z,2.94
2018-02-10T15:32:45.165Z,2.94
2018-02-10T15:35:17.200Z,2.99
2018-02-10T15:37:45.683Z,2.83
2018-02-10T15:40:14.192Z,2.90
2018-02-10T15:42:42.728Z,2.86
2018-02-10T15:45:11.267Z,2.78
2018-02-10T15:47:39.845Z,2.89
2018-02-10T15:50:08.584Z,2.76
2018-02-10T15:52:39.040Z,2.77
2018-02-10T15:55:07.945Z,2.72
2018-02-10T15:57:36.460Z,2.66
2018-02-10T16:00:08.220Z,2.71
2018-02-10T16:02:36.813Z,2.62
2018-02-10T16:05:05.761Z,2.61
2018-02-10T16:07:34.226Z,2.49
2018-02-10T16:10:02.781Z,2.45
2018-02-10T16:12:31.359Z,2.45
2018-02-10T16:15:00.173Z,2.42
2018-02-10T16:17:28.873Z,2.42
2018-02-10T16:19:57.456Z,2.44
2018-02-10T16:22:26.248Z,2.37
2018-02-10T16:24:54.909Z,2.39
2018-02-10T16:27:23.613Z,2.38
2018-02-10T16:29:52.089Z,2.40
2018-02-10T16:32:20.884Z,2.37
2018-02-10T16:34:49.755Z,2.41
2018-02-10T16:37:18.308Z,2.49
2018-02-10T16:39:46.800Z,2.47
2018-02-10T16:42:15.318Z,2.46
2018-02-10T16:44:58.716Z,2.46
2018-02-10T16:47:27.449Z,2.50
2018-02-10T16:49:56.108Z,2.41
2018-02-10T16:52:24.944Z,2.43
2018-02-10T16:54:53.428Z,2.39
2018-02-10T16:57:22.101Z,2.33
2018-02-10T16:59:50.568Z,2.28
2018-02-10T17:02:19.142Z,2.24
2018-02-10T17:04:47.831Z,2.23
2018-02-10T17:07:16.380Z,2.28
2018-02-10T17:09:45.205Z,2.25
2018-02-10T17:12:13.884Z,2.27
2018-02-10T17:14:44.220Z,2.26
2018-02-10T17:17:12.960Z,2.29
2018-02-10T17:19:41.613Z,2.22
2018-02-10T17:22:10.312Z,2.20
2018-02-10T17:24:39.008Z,2.22
2018-02-10T17:27:07.529Z,2.15
2018-02-10T17:29:36.132Z,2.20
2018-02-10T17:32:04.684Z,2.19
2018-02-10T17:34:33.266Z,2.12
2018-02-10T17:37:01.985Z,2.06
2018-02-10T17:39:30.622Z,2.02
2018-02-10T17:41:59.537Z,1.98
2018-02-10T17:44:28.348Z,1.98
2018-02-10T17:46:56.948Z,1.98
2018-02-10T17:49:25.568Z,2.00
2018-02-10T17:51:54.156Z,2.00
2018-02-10T17:54:23.197Z,1.96
2018-02-10T17:56:51.880Z,1.97
2018-02-10T17:59:20.348Z,1.90
2018-02-10T18:01:49.064Z,1.89
2018-02-10T18:04:17.617Z,1.91
2018-02-10T18:06:46.204Z,1.90
2018-02-10T18:09:14.788Z,1.85
2018-02-10T18:11:43.318Z,1.85
2018-02-10T18:14:11.801Z,1.96
2018-02-10T18:16:40.349Z,1.93
2018-02-10T18:19:08.973Z,1.93
2018-02-10T18:21:37.707Z,1.86
2018-02-10T18:24:06.192Z,1.85
2018-02-10T18:26:34.820Z,1.81
2018-02-10T18:29:03.452Z,1.89
2018-02-10T18:31:32.040Z,1.83
2018-02-10T18:34:01.287Z,1.80
2018-02-10T18:36:31.784Z,1.79
2018-02-10T18:39:00.424Z,1.80
2018-02-10T18:41:29.339Z,1.71
2018-02-10T18:43:58.951Z,1.76
2018-02-10T18:46:29.192Z,1.79
2018-02-10T18:48:58.602Z,1.75
2018-02-10T18:51:27.740Z,1.77
2018-02-10T18:53:58.143Z,1.75
2018-02-10T18:56:28.124Z,1.72
2018-02-10T18:58:58.381Z,1.74
2018-02-10T19:01:28.184Z,1.65
2018-02-10T19:03:58.884Z,1.66
2018-02-10T19:06:27.404Z,1.63
2018-02-10T19:08:55.875Z,1.63
2018-02-10T19:11:27.638Z,1.63
2018-02-10T19:13:56.694Z,1.62
2018-02-10T19:16:26.625Z,1.64
2018-02-10T19:18:55.306Z,1.65
2018-02-10T19:21:24.194Z,1.64
2018-02-10T19:23:52.900Z,1.66
2018-02-10T19:26:21.613Z,1.65
2018-02-10T19:28:50.313Z,1.54
2018-02-10T19:31:19.444Z,1.62
2018-02-10T19:33:48.620Z,1.58
2018-02-10T19:36:17.564Z,1.54
2018-02-10T19:38:46.296Z,1.62
2018-02-10T19:41:14.980Z,1.57
2018-02-10T19:43:43.681Z,1.58
2018-02-10T19:46:12.421Z,1.55
2018-02-10T19:48:41.444Z,1.62
2018-02-10T19:51:10.074Z,1.54
2018-02-10T19:53:38.641Z,1.55
2018-02-10T19:56:07.160Z,1.58
2018-02-10T19:58:35.684Z,1.53
2018-02-10T20:01:04.175Z,1.56
2018-02-10T20:03:32.997Z,1.58
2018-02-10T20:06:05.409Z,1.58
2018-02-10T20:08:34.198Z,1.55
2018-02-10T20:11:03.309Z,1.60
2018-02-10T20:13:31.956Z,1.54
2018-02-10T20:16:00.975Z,1.55
2018-02-10T20:18:29.532Z,1.61
2018-02-10T20:20:58.040Z,1.61
2018-02-10T20:23:26.801Z,1.61
2018-02-10T20:25:58.244Z,1.58
2018-02-10T20:28:27.568Z,1.56
2018-02-10T20:30:56.737Z,1.55
2018-02-10T20:33:27.690Z,1.65
2018-02-10T20:35:57.086Z,1.62
2018-02-10T20:38:25.680Z,1.71
2018-02-10T20:40:54.487Z,1.73
2018-02-10T20:43:23.549Z,1.73
2018-02-10T20:45:52.147Z,1.72
2018-02-10T20:48:21.130Z,1.72
2018-02-10T20:50:50.375Z,1.72
2018-02-10T20:53:19.074Z,1.71
2018-02-10T20:55:47.977Z,1.71
2018-02-10T20:58:16.978Z,1.77
2018-02-10T21:00:45.721Z,1.73
2018-02-10T21:03:14.210Z,1.70
2018-02-10T21:05:42.912Z,1.81
2018-02-10T21:08:11.537Z,1.75
2018-02-10T21:10:40.054Z,1.75
2018-02-10T21:13:08.528Z,1.73
2018-02-10T21:15:37.400Z,1.78
2018-02-10T21:18:13.071Z,1.79
2018-02-10T21:20:43.318Z,1.71
2018-02-10T21:23:14.465Z,1.66
2018-02-10T21:25:43.880Z,1.67
2018-02-10T21:28:12.425Z,1.70
2018-02-10T21:30:41.376Z,1.66
2018-02-10T21:33:10.237Z,1.67
2018-02-10T21:35:39.107Z,1.68
2018-02-10T21:38:07.783Z,1.65
2018-02-10T21:40:36.483Z,1.67
2018-02-10T21:43:08.186Z,1.58
2018-02-10T21:45:38.657Z,1.64
2018-02-10T21:48:07.361Z,1.59
2018-02-10T21:50:35.908Z,1.68
2018-02-10T21:53:04.716Z,1.67
2018-02-10T21:55:33.728Z,1.64
2018-02-10T21:58:02.588Z,1.56
2018-02-10T22:00:31.340Z,1.57
2018-02-10T22:02:59.920Z,1.53
2018-02-10T22:05:28.468Z,1.59
2018-02-10T22:07:57.176Z,1.52
2018-02-10T22:10:25.820Z,1.54
2018-02-10T22:12:54.545Z,1.62
2018-02-10T22:15:24.049Z,1.61
2018-02-10T22:17:54.540Z,1.52
2018-02-10T22:20:23.826Z,1.57
2018-02-10T22:22:53.548Z,1.58
2018-02-10T22:25:22.288Z,1.58
2018-02-10T22:27:52.256Z,1.61
2018-02-10T22:30:21.424Z,1.52
2018-02-10T22:32:49.926Z,1.47
2018-02-10T22:35:18.519Z,1.48
2018-02-10T22:37:47.232Z,1.51
2018-02-10T22:40:16.550Z,1.56
2018-02-10T22:42:45.072Z,1.47
2018-02-10T22:45:13.890Z,1.55
2018-02-10T22:47:42.598Z,1.46
2018-02-10T22:50:11.248Z,1.51
2018-02-10T22:52:39.729Z,1.56
2018-02-10T22:55:09.059Z,1.51
2018-02-10T22:57:37.693Z,1.56
2018-02-10T23:00:06.777Z,1.42
2018-02-10T23:02:35.472Z,1.45
2018-02-10T23:05:05.273Z,1.49
2018-02-10T23:07:39.253Z,1.39
2018-02-10T23:10:11.943Z,1.52
2018-02-10T23:12:41.229Z,1.51
2018-02-10T23:15:10.900Z,1.57
2018-02-10T23:17:40.749Z,1.61
2018-02-10T23:20:09.357Z,1.54
2018-02-10T23:22:37.943Z,1.60
2018-02-10T23:25:06.668Z,1.59
2018-02-10T23:27:35.801Z,1.59
2018-02-10T23:30:04.766Z,1.59
2018-02-10T23:32:34.032Z,1.59
2018-02-10T23:35:02.845Z,1.60
2018-02-10T23:37:32.493Z,1.65
2018-02-10T23:40:01.084Z,1.66
2018-02-10T23:42:30.288Z,1.65
2018-02-10T23:44:59.503Z,1.64
2018-02-10T23:47:28.040Z,1.67
2018-02-10T23:49:56.725Z,1.65
2018-02-10T23:52:26.514Z,1.65
2018-02-10T23:54:56.793Z,1.64
2018-02-10T23:57:26.584Z,1.62
2018-02-10T23:59:55.068Z,1.57
